Time;durP1;ratioP1;P1;durP2;ratioP2;P2;SDS_P1;SDS_P2;PMS_P1;PMS_P2;Temp;Humidity;BMP_temperature;BMP_pressure;BME280_temperature;BME280_humidity;BME280_pressure;Samples;Min_cycle;Max_cycle;Signal;HPM_P1;HPM_P2
2022/05/05 00:00:18;;;;;;;17.73;5.53;;;13.00;66.00;;;;;;9180637;19;20017;-71
2022/05/05 00:03:24;;;;;;;13.15;5.22;;;12.90;65.80;;;;;;9177537;19;20030;-71
2022/05/05 00:06:31;;;;;;;11.75;4.88;;;12.90;66.10;;;;;;9178770;19;20050;-74
2022/05/05 00:09:39;;;;;;;16.02;5.28;;;12.90;66.00;;;;;;9179579;19;20019;-72
2022/05/05 00:16:08;;;;;;;13.90;5.88;;;12.80;66.60;;;;;;9178118;19;20597;-73
2022/05/05 00:19:23;;;;;;;15.70;5.75;;;12.80;66.70;;;;;;9180123;19;20081;-74
2022/05/05 00:22:28;;;;;;;14.82;5.30;;;13.10;67.00;;;;;;9176664;19;20026;-72
2022/05/05 00:25:36;;;;;;;11.73;5.32;;;12.80;66.90;;;;;;9177609;19;20438;-72
2022/05/05 00:28:46;;;;;;;10.02;4.95;;;12.70;67.60;;;;;;9178541;19;20033;-73
2022/05/05 00:31:57;;;;;;;10.57;5.30;;;12.70;68.20;;;;;;9177966;19;20028;-70
2022/05/05 00:35:02;;;;;;;14.48;5.38;;;12.60;67.90;;;;;;9178645;19;20022;-73
2022/05/05 00:38:10;;;;;;;16.60;5.97;;;12.60;69.60;;;;;;9177043;19;20014;-72
2022/05/05 00:41:18;;;;;;;14.20;5.35;;;12.70;69.10;;;;;;9177258;19;20015;-75
2022/05/05 00:44:33;;;;;;;10.75;5.18;;;12.60;69.90;;;;;;9178325;19;20023;-73
2022/05/05 00:47:42;;;;;;;14.57;5.28;;;12.60;68.90;;;;;;9177111;19;20011;-72
2022/05/05 00:50:57;;;;;;;14.20;4.82;;;12.60;69.20;;;;;;9178088;19;20003;-71
2022/05/05 00:54:02;;;;;;;13.43;4.80;;;12.60;68.80;;;;;;9176838;19;20349;-73
2022/05/05 00:57:11;;;;;;;17.02;5.45;;;12.50;69.20;;;;;;9175251;19;20019;-74
2022/05/05 01:00:24;;;;;;;14.82;5.28;;;12.50;69.30;;;;;;9186654;19;20018;-72
2022/05/05 01:03:34;;;;;;;12.00;5.00;;;12.40;70.20;;;;;;9179900;19;20011;-73
2022/05/05 01:06:43;;;;;;;12.93;4.90;;;12.40;70.10;;;;;;9187283;19;20021;-75
2022/05/05 01:09:48;;;;;;;17.75;5.65;;;12.50;69.60;;;;;;9182836;19;20022;-71
2022/05/05 01:12:57;;;;;;;11.55;4.80;;;12.40;69.30;;;;;;9186277;19;20104;-72
2022/05/05 01:16:10;;;;;;;17.38;5.65;;;12.30;69.20;;;;;;9186797;19;20025;-72
2022/05/05 01:19:15;;;;;;;14.48;5.78;;;12.40;68.80;;;;;;9182089;19;20203;-73
2022/05/05 01:22:26;;;;;;;9.68;5.18;;;12.30;69.00;;;;;;9183547;19;20018;-71
2022/05/05 01:28:57;;;;;;;21.80;5.80;;;12.20;68.90;;;;;;9184539;19;20368;-72
2022/05/05 01:32:03;;;;;;;9.60;5.47;;;12.10;68.70;;;;;;9186011;19;20022;-72
2022/05/05 01:35:09;;;;;;;13.65;5.40;;;12.20;69.30;;;;;;9184417;19;20497;-73
2022/05/05 01:38:22;;;;;;;16.73;5.38;;;12.20;68.90;;;;;;9185217;19;20029;-73
2022/05/05 01:41:30;;;;;;;15.65;5.95;;;12.20;69.20;;;;;;9183378;19;20014;-70
2022/05/05 01:44:35;;;;;;;16.15;5.43;;;12.10;69.30;;;;;;9184129;19;20049;-71
2022/05/05 01:47:40;;;;;;;19.83;4.72;;;12.10;68.90;;;;;;9184530;19;20106;-72
2022/05/05 01:50:48;;;;;;;19.88;6.00;;;12.00;68.70;;;;;;9183334;19;20019;-73
2022/05/05 01:53:58;;;;;;;13.77;5.50;;;12.00;69.10;;;;;;9184251;19;20019;-73
2022/05/05 01:57:09;;;;;;;13.63;5.22;;;12.00;69.10;;;;;;9181252;19;20023;-71
2022/05/05 02:00:20;;;;;;;10.65;5.03;;;11.90;68.90;;;;;;9183991;19;20041;-72
2022/05/05 02:03:25;;;;;;;10.32;4.50;;;12.00;69.00;;;;;;9179584;19;20044;-74
2022/05/05 02:06:35;;;;;;;16.33;6.00;;;11.90;69.30;;;;;;9183287;19;20015;-70
2022/05/05 02:09:43;;;;;;;17.02;6.50;;;11.90;69.80;;;;;;9181765;19;20033;-72
2022/05/05 02:12:54;;;;;;;14.63;5.85;;;11.80;69.30;;;;;;9185076;19;20022;-72
2022/05/05 02:15:59;;;;;;;18.35;5.80;;;11.80;69.00;;;;;;9180565;19;20405;-71
2022/05/05 02:19:07;;;;;;;10.80;5.38;;;11.80;69.80;;;;;;9182237;19;20040;-74
2022/05/05 02:22:16;;;;;;;15.30;5.38;;;11.70;70.20;;;;;;9183792;19;20025;-71
2022/05/05 02:25:27;;;;;;;21.00;5.88;;;11.70;69.70;;;;;;9182734;19;20014;-72
2022/05/05 02:28:34;;;;;;;16.33;6.10;;;11.70;69.90;;;;;;9182271;19;20021;-71
2022/05/05 02:31:40;;;;;;;20.70;5.93;;;11.70;70.10;;;;;;9183189;19;20029;-73
2022/05/05 02:34:48;;;;;;;11.27;5.43;;;11.60;70.30;;;;;;9181585;19;20018;-71
2022/05/05 02:41:14;;;;;;;14.40;5.82;;;12.20;70.70;;;;;;9181220;19;20029;-71
2022/05/05 02:44:26;;;;;;;13.50;5.10;;;11.50;70.50;;;;;;9180448;19;19998;-74
2022/05/05 02:47:47;;;;;;;11.88;5.57;;;11.40;70.90;;;;;;9180782;19;20025;-70
2022/05/05 02:50:55;;;;;;;15.95;5.45;;;11.50;71.20;;;;;;9183854;19;20476;-71
2022/05/05 02:57:22;;;;;;;15.55;6.18;;;11.40;70.50;;;;;;9178647;19;20022;-71
2022/05/05 03:00:27;;;;;;;13.80;5.55;;;11.40;70.90;;;;;;9180844;19;20033;-70
2022/05/05 03:03:46;;;;;;;10.27;5.20;;;11.30;71.30;;;;;;9178706;19;20019;-72
2022/05/05 03:06:54;;;;;;;16.77;5.82;;;11.30;71.60;;;;;;9180289;19;20022;-71
2022/05/05 03:09:59;;;;;;;15.32;5.50;;;11.40;71.90;;;;;;9178578;19;20491;-72
2022/05/05 03:13:09;;;;;;;21.75;7.30;;;11.30;71.90;;;;;;9181213;19;20018;-71
2022/05/05 03:16:16;;;;;;;12.50;5.45;;;11.20;71.80;;;;;;9180411;19;20042;-72
2022/05/05 03:19:33;;;;;;;17.67;6.15;;;11.30;71.90;;;;;;9178518;19;20445;-71
2022/05/05 03:22:40;;;;;;;14.98;5.88;;;11.20;72.10;;;;;;9180112;19;20019;-73
2022/05/05 03:25:58;;;;;;;12.55;6.22;;;11.20;71.10;;;;;;9179582;19;20014;-73
2022/05/05 03:29:11;;;;;;;11.13;5.63;;;11.10;72.20;;;;;;9179813;19;20022;-72
2022/05/05 03:32:17;;;;;;;25.65;7.45;;;11.10;72.30;;;;;;9180038;19;20030;-70
2022/05/05 03:35:23;;;;;;;18.80;6.03;;;11.10;71.90;;;;;;9179481;19;20014;-71
2022/05/05 03:38:38;;;;;;;17.42;6.60;;;10.90;72.00;;;;;;9179124;19;20025;-71
2022/05/05 03:41:54;;;;;;;13.23;6.93;;;11.00;72.50;;;;;;9180775;19;20018;-74
2022/05/05 03:45:02;;;;;;;21.73;6.15;;;10.90;72.20;;;;;;9178803;19;20017;-73
2022/05/05 03:48:11;;;;;;;15.88;7.00;;;10.90;72.60;;;;;;9178539;19;20048;-72
2022/05/05 03:51:16;;;;;;;14.52;6.47;;;11.00;72.30;;;;;;9180081;19;20025;-71
2022/05/05 03:54:24;;;;;;;20.42;7.13;;;10.80;72.70;;;;;;9178519;19;20033;-73
2022/05/05 03:57:29;;;;;;;17.85;6.90;;;10.80;72.80;;;;;;9176465;19;20078;-72
2022/05/05 04:00:37;;;;;;;17.75;7.03;;;10.80;74.00;;;;;;9180866;19;20048;-73
2022/05/05 04:03:44;;;;;;;19.13;6.50;;;10.70;70.50;;;;;;9179879;19;20360;-72
2022/05/05 04:06:53;;;;;;;18.23;7.07;;;10.80;70.30;;;;;;9177717;19;20010;-74
2022/05/05 04:09:58;;;;;;;20.33;7.75;;;10.70;70.30;;;;;;9176924;19;20048;-74
2022/05/05 04:13:07;;;;;;;20.98;7.55;;;10.60;70.00;;;;;;9178376;19;20340;-72
2022/05/05 04:16:15;;;;;;;18.13;6.18;;;10.60;70.30;;;;;;9178755;19;20057;-71
2022/05/05 04:19:35;;;;;;;18.25;7.57;;;10.60;70.30;;;;;;9179508;19;20464;-71
2022/05/05 04:22:42;;;;;;;16.10;7.40;;;10.60;70.60;;;;;;9178651;19;20011;-73
2022/05/05 04:25:48;;;;;;;15.48;7.00;;;10.50;70.00;;;;;;9179339;19;20025;-71
2022/05/05 04:28:56;;;;;;;19.33;7.38;;;10.50;70.20;;;;;;9177186;19;20018;-71
2022/05/05 04:32:04;;;;;;;22.90;7.38;;;10.50;70.50;;;;;;9183093;19;20022;-71
2022/05/05 04:35:14;;;;;;;11.80;7.22;;;10.50;71.00;;;;;;9187440;19;20071;-71
2022/05/05 04:38:20;;;;;;;19.52;6.95;;;10.50;70.90;;;;;;9187468;19;20018;-71
2022/05/05 04:41:26;;;;;;;16.70;7.25;;;10.50;70.80;;;;;;9187779;19;20014;-74
2022/05/05 04:44:34;;;;;;;18.77;7.57;;;10.50;70.80;;;;;;9184494;19;20018;-72
2022/05/05 04:47:43;;;;;;;21.45;7.38;;;10.50;71.40;;;;;;9188421;19;20030;-74
2022/05/05 04:50:53;;;;;;;14.75;6.82;;;10.70;71.10;;;;;;9186538;19;20015;-73
2022/05/05 04:53:59;;;;;;;19.80;8.30;;;10.40;71.30;;;;;;9188421;19;20010;-72
2022/05/05 04:57:05;;;;;;;26.42;7.72;;;10.40;70.70;;;;;;9183943;19;20040;-73
2022/05/05 05:00:16;;;;;;;17.55;7.43;;;10.40;71.20;;;;;;9188756;19;20018;-71
2022/05/05 05:03:36;;;;;;;18.50;7.80;;;10.40;71.30;;;;;;9184652;19;20038;-74
2022/05/05 05:06:52;;;;;;;20.35;7.03;;;10.50;71.50;;;;;;9186526;19;20086;-73
2022/05/05 05:10:00;;;;;;;19.48;8.60;;;10.30;71.40;;;;;;9183315;19;20035;-73
2022/05/05 05:13:08;;;;;;;20.05;7.35;;;10.60;72.10;;;;;;9187433;19;20014;-73
2022/05/05 05:16:13;;;;;;;19.73;6.93;;;10.40;71.80;;;;;;9186271;19;20098;-70
2022/05/05 05:19:43;;;;;;;15.80;7.55;;;10.50;72.30;;;;;;9185198;19;20043;-70
2022/05/05 05:22:48;;;;;;;15.88;8.10;;;10.50;72.10;;;;;;9185611;19;20022;-72
2022/05/05 05:25:56;;;;;;;24.08;8.55;;;10.50;72.40;;;;;;9182285;19;20026;-73
2022/05/05 05:29:03;;;;;;;17.13;7.47;;;10.50;72.10;;;;;;9185618;19;20018;-71
2022/05/05 05:32:09;;;;;;;18.17;8.35;;;10.60;72.30;;;;;;9183789;19;20022;-72
2022/05/05 05:35:17;;;;;;;14.88;7.78;;;10.60;72.10;;;;;;9183761;19;20571;-71
2022/05/05 05:38:22;;;;;;;18.50;9.35;;;10.60;72.50;;;;;;9184912;19;20082;-73
2022/05/05 05:41:27;;;;;;;15.00;8.15;;;10.70;72.40;;;;;;9184377;19;20018;-73
2022/05/05 05:44:37;;;;;;;20.85;8.88;;;10.70;72.60;;;;;;9182684;19;20010;-73
2022/05/05 05:47:42;;;;;;;22.58;8.50;;;10.70;72.20;;;;;;9184705;19;20038;-70
2022/05/05 05:50:50;;;;;;;16.10;7.85;;;10.80;72.60;;;;;;9183806;19;20019;-72
2022/05/05 05:53:55;;;;;;;17.15;8.13;;;10.80;73.10;;;;;;9185959;19;20006;-73
2022/05/05 05:57:01;;;;;;;20.75;8.60;;;10.80;73.00;;;;;;9179351;19;20006;-70
2022/05/05 06:00:07;;;;;;;18.88;8.38;;;10.90;72.20;;;;;;9183680;19;20015;-70
2022/05/05 06:06:43;;;;;;;21.90;8.15;;;11.00;72.20;;;;;;9178186;19;20022;-73
2022/05/05 06:09:50;;;;;;;21.40;8.35;;;11.10;71.80;;;;;;9177172;19;20482;-70
2022/05/05 06:12:55;;;;;;;21.65;8.70;;;11.20;72.30;;;;;;9176612;19;20013;-75
2022/05/05 06:16:04;;;;;;;16.77;8.65;;;11.30;72.50;;;;;;9178057;19;20018;-74
2022/05/05 06:19:10;;;;;;;20.23;9.48;;;11.30;72.60;;;;;;9176506;19;20018;-75
2022/05/05 06:22:21;;;;;;;17.50;8.40;;;11.50;72.70;;;;;;9178126;19;20502;-73
2022/05/05 06:25:26;;;;;;;27.70;9.23;;;11.60;72.70;;;;;;9176137;19;20463;-72
2022/05/05 06:28:32;;;;;;;18.83;8.68;;;11.70;72.70;;;;;;9175229;19;20051;-76
2022/05/05 06:31:40;;;;;;;19.15;9.00;;;11.90;72.90;;;;;;9176476;19;20074;-74
2022/05/05 06:34:45;;;;;;;23.55;9.35;;;12.00;72.80;;;;;;9181859;19;20078;-73
2022/05/05 06:37:53;;;;;;;21.63;8.27;;;12.20;72.70;;;;;;9184323;19;20464;-74
2022/05/05 06:40:58;;;;;;;21.88;8.25;;;12.40;72.60;;;;;;9177892;19;20014;-76
2022/05/05 06:44:03;;;;;;;18.08;8.75;;;12.50;72.80;;;;;;9181938;19;20380;-76
2022/05/05 06:47:15;;;;;;;22.45;8.27;;;12.70;72.40;;;;;;9177472;19;20145;-76
2022/05/05 06:50:21;;;;;;;17.70;9.52;;;12.90;72.40;;;;;;9182023;19;20051;-74
2022/05/05 06:53:29;;;;;;;15.43;7.68;;;13.10;72.60;;;;;;9182344;19;20015;-73
2022/05/05 06:56:35;;;;;;;20.48;8.60;;;13.30;71.60;;;;;;9169971;19;20102;-73
2022/05/05 06:59:40;;;;;;;18.80;7.88;;;13.60;71.70;;;;;;9177946;19;20353;-75
2022/05/05 07:02:48;;;;;;;29.00;9.15;;;13.70;71.10;;;;;;9176720;19;20010;-71
2022/05/05 07:05:56;;;;;;;23.30;7.68;;;13.90;70.80;;;;;;9174321;19;20030;-71
2022/05/05 07:12:23;;;;;;;20.65;7.47;;;14.30;70.10;;;;;;9175956;19;20026;-74
2022/05/05 07:15:29;;;;;;;15.88;6.78;;;14.50;69.70;;;;;;9180350;19;20015;-73
2022/05/05 07:18:39;;;;;;;19.38;7.07;;;14.60;69.30;;;;;;9180068;19;20026;-72
2022/05/05 07:21:44;;;;;;;22.67;8.13;;;14.80;69.30;;;;;;9179344;19;20018;-76
2022/05/05 07:24:52;;;;;;;13.10;6.97;;;15.00;69.20;;;;;;9176695;19;20010;-72
2022/05/05 07:28:00;;;;;;;16.27;7.20;;;15.20;69.10;;;;;;9176598;19;20025;-75
2022/05/05 07:31:05;;;;;;;17.70;7.55;;;15.40;68.90;;;;;;9174063;19;20014;-75
2022/05/05 07:34:12;;;;;;;13.13;6.95;;;15.50;68.40;;;;;;9176666;19;20020;-76
2022/05/05 07:37:19;;;;;;;15.98;6.65;;;15.70;67.90;;;;;;9177479;19;20482;-74
2022/05/05 07:40:29;;;;;;;15.63;7.13;;;15.80;68.00;;;;;;9178030;19;20019;-72
2022/05/05 07:43:37;;;;;;;16.98;7.18;;;16.00;67.60;;;;;;9175956;19;20051;-75
2022/05/05 07:46:42;;;;;;;18.80;7.75;;;16.10;67.20;;;;;;9175545;19;20014;-76
2022/05/05 07:49:56;;;;;;;14.38;6.05;;;16.30;67.50;;;;;;9172034;19;20364;-76
2022/05/05 07:53:01;;;;;;;17.88;6.07;;;16.40;67.50;;;;;;9174818;19;20025;-74
2022/05/05 07:56:09;;;;;;;21.20;5.90;;;16.50;67.10;;;;;;9170157;19;20015;-74
2022/05/05 07:59:15;;;;;;;17.67;6.95;;;16.70;66.90;;;;;;9174049;19;20024;-73
2022/05/05 08:02:20;;;;;;;22.48;5.90;;;16.80;66.70;;;;;;9173610;19;20014;-73
2022/05/05 08:05:25;;;;;;;24.08;6.28;;;16.90;66.60;;;;;;9170101;19;20047;-73
2022/05/05 08:08:30;;;;;;;13.00;4.90;;;17.00;66.10;;;;;;9172983;19;20007;-74
2022/05/05 08:11:38;;;;;;;15.50;5.82;;;17.10;66.00;;;;;;9176396;19;20107;-76
2022/05/05 08:14:43;;;;;;;15.27;6.20;;;17.30;65.90;;;;;;9169932;19;20048;-74
2022/05/05 08:17:54;;;;;;;14.52;4.68;;;17.40;65.90;;;;;;9169271;19;20476;-77
2022/05/05 08:21:01;;;;;;;17.13;4.40;;;17.50;65.70;;;;;;9169055;19;20018;-74
2022/05/05 08:30:57;;;;;;;15.65;4.90;;;17.80;64.60;;;;;;9169434;19;20791;-75
2022/05/05 08:34:02;;;;;;;16.65;4.15;;;18.00;65.10;;;;;;9169943;19;20045;-74
2022/05/05 08:37:08;;;;;;;11.15;5.00;;;18.20;65.00;;;;;;9169011;19;20026;-74
2022/05/05 08:40:17;;;;;;;11.40;4.68;;;18.30;65.20;;;;;;9167819;19;20049;-75
2022/05/05 08:43:24;;;;;;;11.23;4.78;;;18.60;65.10;;;;;;9169630;19;20439;-73
2022/05/05 08:46:53;;;;;;;11.75;4.15;;;18.70;64.50;;;;;;9167293;19;20022;-74
2022/05/05 08:50:01;;;;;;;19.38;4.20;;;18.90;65.20;;;;;;9166128;19;20033;-73
2022/05/05 08:53:08;;;;;;;8.95;3.70;;;19.00;64.50;;;;;;9168492;19;20010;-72
2022/05/05 08:56:15;;;;;;;9.52;3.72;;;19.20;64.40;;;;;;9163631;19;20109;-73
2022/05/05 08:59:27;;;;;;;12.60;5.18;;;19.30;64.90;;;;;;9168576;19;20045;-75
2022/05/05 09:02:41;;;;;;;17.00;4.60;;;19.50;65.20;;;;;;9165259;19;20025;-73
2022/05/05 09:06:01;;;;;;;10.93;4.25;;;19.70;64.90;;;;;;9167834;19;20022;-72
2022/05/05 09:09:11;;;;;;;11.70;4.85;;;19.70;64.90;;;;;;9167134;19;20033;-73
2022/05/05 09:12:18;;;;;;;13.07;3.92;;;19.90;64.80;;;;;;9168184;19;20026;-72
2022/05/05 09:15:32;;;;;;;10.70;4.13;;;20.00;64.80;;;;;;9172457;19;20015;-74
2022/05/05 09:18:38;;;;;;;9.15;4.15;;;20.10;64.50;;;;;;9176986;19;20018;-77
2022/05/05 09:21:49;;;;;;;17.67;4.55;;;20.20;64.90;;;;;;9181871;19;20404;-73
2022/05/05 09:24:57;;;;;;;14.10;4.07;;;20.60;65.00;;;;;;9180438;19;20014;-73
2022/05/05 09:28:18;;;;;;;16.05;4.70;;;20.40;65.10;;;;;;9181574;19;20086;-74
2022/05/05 09:31:27;;;;;;;11.43;4.63;;;20.50;64.70;;;;;;9180146;19;20487;-74
2022/05/05 09:34:40;;;;;;;9.75;4.30;;;20.60;64.60;;;;;;9181343;19;20090;-72
2022/05/05 09:37:49;;;;;;;8.18;3.60;;;20.70;64.60;;;;;;9180301;19;20025;-73
2022/05/05 09:41:06;;;;;;;9.35;4.10;;;20.80;64.40;;;;;;9183505;19;20018;-74
2022/05/05 09:44:21;;;;;;;13.52;4.13;;;20.90;64.00;;;;;;9179370;19;20018;-75
2022/05/05 09:47:52;;;;;;;7.63;4.10;;;21.00;64.80;;;;;;9177271;19;20037;-75
2022/05/05 09:51:04;;;;;;;10.20;3.72;;;21.10;63.30;;;;;;9180894;19;20044;-71
2022/05/05 09:57:46;;;;;;;9.60;4.75;;;21.30;64.10;;;;;;9175192;19;20006;-70
2022/05/05 10:01:05;;;;;;;9.50;3.80;;;21.30;64.90;;;;;;9179917;19;20026;-72
2022/05/05 10:04:14;;;;;;;10.75;3.90;;;21.30;64.80;;;;;;9178993;19;20014;-70
2022/05/05 10:07:24;;;;;;;6.78;3.70;;;21.40;61.20;;;;;;9176371;19;20476;-71
2022/05/05 10:10:32;;;;;;;8.45;3.80;;;21.50;60.50;;;;;;9181508;19;20063;-71
2022/05/05 10:13:39;;;;;;;11.45;4.10;;;21.60;60.70;;;;;;9179922;19;20014;-72
2022/05/05 10:16:45;;;;;;;9.57;3.60;;;21.80;60.80;;;;;;9180302;19;20042;-69
2022/05/05 10:19:55;;;;;;;11.48;4.13;;;21.90;61.10;;;;;;9178962;19;20487;-71
2022/05/05 10:23:09;;;;;;;10.23;3.75;;;22.10;61.40;;;;;;9178314;19;20399;-68
2022/05/05 10:26:16;;;;;;;11.43;3.90;;;22.10;61.20;;;;;;9178187;19;20014;-69
2022/05/05 10:29:40;;;;;;;10.10;3.95;;;22.10;61.50;;;;;;9176815;19;20018;-69
2022/05/05 10:32:46;;;;;;;8.93;3.45;;;22.40;61.70;;;;;;9178512;19;20014;-69
2022/05/05 10:35:54;;;;;;;8.43;3.45;;;22.40;61.70;;;;;;9176772;19;20030;-68
2022/05/05 10:38:59;;;;;;;9.65;4.00;;;22.50;61.70;;;;;;9176957;19;20106;-71
2022/05/05 10:42:16;;;;;;;8.35;3.60;;;22.60;61.90;;;;;;9174025;19;20014;-71
2022/05/05 10:45:32;;;;;;;10.80;3.70;;;22.70;61.60;;;;;;9174805;19;20019;-69
2022/05/05 10:48:38;;;;;;;17.05;3.80;;;22.80;62.50;;;;;;9176429;19;20102;-70
2022/05/05 10:52:29;;;;;;;9.45;4.00;;;22.80;62.70;;;;;;9178123;19;20018;-70
2022/05/05 10:55:48;;;;;;;7.43;3.13;;;22.90;62.20;;;;;;9177231;19;20021;-72
2022/05/05 10:59:06;;;;;;;4.47;3.63;;;23.00;60.80;;;;;;9177025;19;20619;-70
2022/05/05 11:02:20;;;;;;;7.57;3.15;;;23.00;61.00;;;;;;9178374;19;20037;-71
2022/05/05 11:05:46;;;;;;;6.72;3.60;;;23.10;60.70;;;;;;9176495;19;20732;-70
2022/05/05 11:08:57;;;;;;;13.00;4.00;;;23.10;60.30;;;;;;9170441;19;20034;-68
2022/05/05 11:12:17;;;;;;;7.13;3.55;;;23.20;60.50;;;;;;9174048;19;20641;-68
2022/05/05 11:22:25;;;;;;;7.28;3.72;;;23.20;60.20;;;;;;9171932;19;20018;-72
2022/05/05 11:25:37;;;;;;;14.15;3.40;;;23.30;60.50;;;;;;9177599;19;20030;-72
2022/05/05 11:28:42;;;;;;;9.45;3.85;;;23.30;60.90;;;;;;9174733;19;20022;-69
2022/05/05 11:32:02;;;;;;;7.20;3.50;;;23.50;66.40;;;;;;9182872;19;20047;-70
2022/05/05 11:35:12;;;;;;;8.45;3.90;;;23.40;56.30;;;;;;9176247;19;20373;-71
2022/05/05 11:38:20;;;;;;;7.32;3.58;;;23.40;56.10;;;;;;9175434;19;20101;-70
2022/05/05 11:41:31;;;;;;;5.32;2.70;;;23.60;56.50;;;;;;9170043;19;20023;-69
2022/05/05 11:44:39;;;;;;;9.23;3.30;;;23.50;56.10;;;;;;9175007;19;20073;-73
2022/05/05 11:47:51;;;;;;;7.38;3.28;;;23.60;55.80;;;;;;9175336;19;20487;-72
2022/05/05 11:51:06;;;;;;;5.28;3.05;;;23.60;55.90;;;;;;9178524;19;20364;-75
2022/05/05 11:54:14;;;;;;;4.80;3.10;;;23.70;55.70;;;;;;9176383;19;20018;-72
2022/05/05 11:57:38;;;;;;;6.97;3.38;;;23.70;56.10;;;;;;9176227;19;20069;-70
2022/05/05 12:04:03;;;;;;;6.13;3.17;;;24.00;56.30;;;;;;9174601;19;19927;-73
2022/05/05 12:07:11;;;;;;;9.18;3.13;;;24.00;56.10;;;;;;9174382;19;20014;-72
2022/05/05 12:10:24;;;;;;;4.75;2.65;;;24.00;55.80;;;;;;9173610;19;20029;-72
2022/05/05 12:13:42;;;;;;;8.40;3.40;;;24.10;55.60;;;;;;9175897;19;20018;-72
2022/05/05 12:16:48;;;;;;;10.10;4.47;;;24.20;55.00;;;;;;9173940;19;20081;-69
2022/05/05 12:20:05;;;;;;;8.15;3.38;;;24.40;55.20;;;;;;9174718;19;20011;-79
2022/05/05 12:23:13;;;;;;;7.47;3.50;;;24.30;54.80;;;;;;9172957;19;20025;-78
2022/05/05 12:26:20;;;;;;;6.15;2.97;;;24.40;55.00;;;;;;9172937;19;20027;-78
2022/05/05 12:29:39;;;;;;;8.07;3.47;;;24.50;54.90;;;;;;9173429;19;20055;-76
2022/05/05 12:32:54;;;;;;;4.18;3.00;;;24.60;54.60;;;;;;9174651;19;20022;-74
2022/05/05 12:36:01;;;;;;;10.23;3.35;;;24.70;54.10;;;;;;9173033;19;20017;-74
2022/05/05 12:39:13;;;;;;;9.05;3.60;;;24.70;54.70;;;;;;9175070;19;20047;-74
2022/05/05 12:42:21;;;;;;;6.95;3.03;;;24.80;53.60;;;;;;9170524;19;20017;-73
2022/05/05 12:45:32;;;;;;;5.45;3.50;;;24.80;53.90;;;;;;9167493;19;20042;-75
2022/05/05 12:48:41;;;;;;;6.07;3.05;;;24.90;53.70;;;;;;9167854;19;20011;-74
2022/05/05 12:51:54;;;;;;;4.53;2.80;;;25.00;53.20;;;;;;9169610;19;20589;-73
2022/05/05 13:01:41;;;;;;;10.65;3.05;;;25.00;53.60;;;;;;9181598;19;20482;-70
2022/05/05 13:04:48;;;;;;;5.82;3.13;;;25.10;53.00;;;;;;9183636;19;20488;-74
2022/05/05 13:07:53;;;;;;;7.35;2.95;;;25.40;53.20;;;;;;9178518;19;20011;-72
2022/05/05 13:11:01;;;;;;;5.15;2.58;;;25.20;52.70;;;;;;9177598;19;20022;-71
2022/05/05 13:14:08;;;;;;;4.47;2.72;;;25.20;52.70;;;;;;9178059;19;20053;-73
2022/05/05 13:17:18;;;;;;;3.80;2.20;;;25.20;52.20;;;;;;9178411;19;20483;-73
2022/05/05 13:20:26;;;;;;;3.45;2.17;;;25.20;52.30;;;;;;9180775;19;20093;-73
2022/05/05 13:23:32;;;;;;;6.63;2.25;;;25.10;52.50;;;;;;9175313;19;20022;-72
2022/05/05 13:26:39;;;;;;;4.60;2.35;;;25.00;52.20;;;;;;9179735;19;20368;-72
2022/05/05 13:29:45;;;;;;;4.75;2.38;;;25.00;51.70;;;;;;9176132;19;20026;-75
2022/05/05 13:32:57;;;;;;;9.77;2.30;;;24.90;51.80;;;;;;9179082;19;20376;-73
2022/05/05 13:36:06;;;;;;;7.07;1.88;;;24.70;51.40;;;;;;9176866;19;20011;-74
2022/05/05 13:39:11;;;;;;;5.95;2.47;;;24.50;51.40;;;;;;9180943;19;20015;-71
2022/05/05 13:42:17;;;;;;;9.05;2.35;;;24.50;51.90;;;;;;9170283;19;20015;-72
2022/05/05 13:45:25;;;;;;;7.38;2.70;;;24.30;51.70;;;;;;9173552;19;20018;-71
2022/05/05 13:48:33;;;;;;;7.82;2.92;;;24.30;52.00;;;;;;9172597;19;20633;-70
2022/05/05 13:51:39;;;;;;;6.18;2.78;;;24.10;51.60;;;;;;9173984;19;20024;-72
2022/05/05 13:55:04;;;;;;;7.38;3.10;;;24.00;51.70;;;;;;9176526;19;20869;-71
2022/05/05 13:58:09;;;;;;;4.95;1.80;;;24.00;52.00;;;;;;9176934;19;20055;-77
2022/05/05 14:01:15;;;;;;;3.75;1.95;;;23.90;51.60;;;;;;9178938;19;20018;-76
2022/05/05 14:04:26;;;;;;;2.33;1.60;;;23.80;51.70;;;;;;9177614;19;20015;-77
2022/05/05 14:14:07;;;;;;;5.20;2.90;;;23.80;51.10;;;;;;9177866;19;20014;-76
2022/05/05 14:17:12;;;;;;;5.72;2.50;;;23.80;51.40;;;;;;9179478;19;20053;-74
2022/05/05 14:20:26;;;;;;;9.02;3.33;;;23.70;51.60;;;;;;9179243;19;20014;-73
2022/05/05 14:23:31;;;;;;;16.92;4.68;;;23.70;51.70;;;;;;9176095;19;20018;-74
2022/05/05 14:26:37;;;;;;;12.70;3.47;;;23.60;51.70;;;;;;9176537;19;20021;-75
2022/05/05 14:29:45;;;;;;;9.25;3.60;;;23.50;51.80;;;;;;9177661;19;20082;-72
2022/05/05 14:32:58;;;;;;;8.93;3.25;;;23.50;52.10;;;;;;9178130;19;20381;-77
2022/05/05 14:36:18;;;;;;;5.25;2.72;;;23.30;51.90;;;;;;9181980;19;20688;-72
2022/05/05 14:39:26;;;;;;;6.45;3.38;;;23.20;52.30;;;;;;9181695;19;20486;-71
2022/05/05 14:42:34;;;;;;;5.53;2.95;;;23.10;51.90;;;;;;9176654;19;20376;-72
2022/05/05 14:45:44;;;;;;;9.80;3.30;;;23.00;52.40;;;;;;9183317;19;20021;-73
2022/05/05 14:48:52;;;;;;;6.47;3.10;;;23.10;52.00;;;;;;9180514;19;20015;-72
2022/05/05 14:52:00;;;;;;;10.82;3.00;;;22.80;52.50;;;;;;9181622;19;20019;-73
2022/05/05 14:55:09;;;;;;;12.45;2.95;;;22.60;52.50;;;;;;9181918;19;20027;-73
2022/05/05 14:58:15;;;;;;;6.85;2.90;;;22.60;52.40;;;;;;9182311;19;20063;-72
2022/05/05 15:01:23;;;;;;;12.55;3.10;;;22.50;52.80;;;;;;9182171;19;20480;-72
2022/05/05 15:04:29;;;;;;;7.72;2.88;;;22.40;52.90;;;;;;9181956;19;20018;-71
2022/05/05 15:07:37;;;;;;;10.65;2.92;;;22.30;52.70;;;;;;9182277;19;20018;-71
2022/05/05 15:10:47;;;;;;;8.27;3.20;;;22.30;52.90;;;;;;9183245;19;20033;-71
2022/05/05 15:13:54;;;;;;;10.95;3.20;;;22.20;52.90;;;;;;9181941;19;20014;-73
2022/05/05 15:17:03;;;;;;;8.77;2.97;;;22.10;52.60;;;;;;9178442;19;20011;-72
2022/05/05 15:20:15;;;;;;;10.35;2.80;;;22.10;52.70;;;;;;9180825;19;20084;-73
2022/05/05 15:23:25;;;;;;;4.57;2.70;;;22.00;52.80;;;;;;9183377;19;20013;-70
2022/05/05 15:26:31;;;;;;;6.35;2.72;;;22.00;52.80;;;;;;9182217;19;20333;-73
2022/05/05 15:29:40;;;;;;;8.70;2.92;;;21.80;53.20;;;;;;9178139;19;20037;-70
2022/05/05 15:32:45;;;;;;;11.30;2.78;;;21.80;53.40;;;;;;9178567;19;20018;-71
2022/05/05 15:35:50;;;;;;;6.63;2.85;;;21.70;53.30;;;;;;9182494;19;20023;-69
2022/05/05 15:38:58;;;;;;;10.35;3.63;;;21.60;53.20;;;;;;9178986;19;20337;-71
2022/05/05 15:42:03;;;;;;;9.13;3.83;;;21.60;53.40;;;;;;9176561;19;20014;-71
2022/05/05 15:45:11;;;;;;;9.52;3.95;;;21.60;53.80;;;;;;9180599;19;20010;-73
2022/05/05 15:48:20;;;;;;;6.97;3.60;;;21.50;53.80;;;;;;9182347;19;20021;-72
2022/05/05 15:51:26;;;;;;;6.88;3.55;;;21.50;53.80;;;;;;9179280;19;20030;-71
2022/05/05 15:54:35;;;;;;;7.85;2.80;;;21.40;53.90;;;;;;9180337;19;20014;-73
2022/05/05 15:57:42;;;;;;;10.43;3.90;;;21.40;54.00;;;;;;9174353;19;20021;-71
2022/05/05 16:00:50;;;;;;;12.18;3.75;;;21.30;53.70;;;;;;9171706;19;20029;-70
2022/05/05 16:03:56;;;;;;;8.45;4.00;;;21.50;53.80;;;;;;9168010;19;20014;-70
2022/05/05 16:07:02;;;;;;;15.40;4.03;;;21.30;54.20;;;;;;9173028;19;20492;-70
2022/05/05 16:10:14;;;;;;;8.45;3.65;;;21.30;53.70;;;;;;9177088;19;20022;-71
2022/05/05 16:13:19;;;;;;;7.63;3.42;;;21.20;54.00;;;;;;9180348;19;20395;-70
2022/05/05 16:16:25;;;;;;;8.73;3.67;;;21.30;54.30;;;;;;9180610;19;20029;-71
2022/05/05 16:19:32;;;;;;;6.43;3.53;;;21.30;54.90;;;;;;9181384;19;20077;-70
2022/05/05 16:22:41;;;;;;;8.32;3.60;;;21.20;54.40;;;;;;9173981;19;20436;-70
2022/05/05 16:32:30;;;;;;;12.82;4.40;;;21.20;54.20;;;;;;9168259;19;20014;-71
2022/05/05 16:35:36;;;;;;;9.98;4.20;;;21.20;55.30;;;;;;9164123;19;20022;-68
2022/05/05 16:38:41;;;;;;;10.25;4.10;;;21.20;54.80;;;;;;9169572;19;20475;-70
2022/05/05 16:41:50;;;;;;;8.77;4.18;;;21.20;55.00;;;;;;9166764;19;20110;-71
2022/05/05 16:44:56;;;;;;;6.90;3.55;;;21.10;55.00;;;;;;9168745;19;20114;-71
2022/05/05 16:48:02;;;;;;;8.40;3.75;;;21.10;55.20;;;;;;9168937;19;20109;-68
2022/05/05 16:51:10;;;;;;;9.63;3.78;;;21.00;55.00;;;;;;9164467;19;20042;-67
2022/05/05 16:54:15;;;;;;;10.88;3.78;;;21.00;55.10;;;;;;9166545;19;20098;-71
2022/05/05 16:57:23;;;;;;;7.25;3.85;;;21.00;55.50;;;;;;9167322;19;20022;-70
2022/05/05 17:00:30;;;;;;;8.85;3.92;;;21.00;54.70;;;;;;9168726;19;20441;-69
2022/05/05 17:03:35;;;;;;;6.15;3.50;;;20.90;55.00;;;;;;9173490;19;20899;-70
2022/05/05 17:06:43;;;;;;;9.40;4.10;;;20.90;55.30;;;;;;9176763;19;20018;-70
2022/05/05 17:09:48;;;;;;;8.05;3.38;;;20.80;55.10;;;;;;9175960;19;20348;-70
2022/05/05 17:13:00;;;;;;;7.53;3.63;;;20.80;54.90;;;;;;9177386;19;20038;-69
2022/05/05 17:16:06;;;;;;;7.55;3.78;;;20.80;55.40;;;;;;9177570;19;20476;-70